Hlavní strana
METAR-TAF:

METAR-TAF

Letiště :

Cairns, Austrálie

zeměpisná šířka: 16-53S, zeměpisná délka: 145-45E, výška: 3 m

Aktuální stav počasí

Zpráva byla vytvořena před 40 minutami, v 09:00 UTC
Východojihovýchodní vítr 1 kt
Teplota 21°C
Vlhkost vzduchu 33%
Tlak 1016 hPa
Viditelnost 10 km a více
Žádná oblačnost pod 1500 m, nevyskytují se cumulonimby.

METAR: YBCS 190900Z 12001KT CAVOK 21/04 Q1016 NOSIG

Čas: 19:40 (09:40 UTC)

Předpověď počasí

Zpráva byla vytvořena před 4 hodinami a 13 minutami, v 05:27 UTC
Předpověď platná od 19 v 06 UTC do 20 v 06 UTC
Jihovýchodní vítr 16 kt
Viditelnost 10 km a více
Žádná oblačnost pod 1500 m, nevyskytují se cumulonimby.
Od 19 v 0800 UTC
Jižní vítr 12 kt
Viditelnost 10 km a více
Žádná oblačnost pod 1500 m, nevyskytují se cumulonimby.
Od 19 v 2300 UTC
Jihovýchodní vítr 18 kt
Viditelnost 10 km a více
Žádná oblačnost pod 1500 m, nevyskytují se cumulonimby.

TAF: YBCS 190527Z 1906/2006 13016KT CAVOK FM190800 17012KT CAVOK FM192300 14018KT CAVOK

Stav a předpovědi počasí z více než 4 000 letišť (zprávy METAR a TAF).

Červené a žluté tečky na mapě představují dostupné meteorologické stanice.

Když kurzor umístíte na tečku, zobrazí se název stanice.

Pak kliknutím zobrazíte stav a předpověď počasí.

Chcete-li změnit mapu, kliknutím na zelené tlačítko se znaménkem +mapu přiblížíte, kliknutím na zelené tlačítko se znaménkem – mapu oddálíte a kliknutím na zelené šipky přejdete na sousední mapy.


METAR-TAF: